sensor_id;sensor_type;location;lat;lon;timestamp;pressure;altitude;pressure_sealevel;temperature;humidity
20009;BME280;10165;42.662;23.260;2023-11-21T00:02:23;93945.91;;;9.94;54.33
20009;BME280;10165;42.662;23.260;2023-11-21T00:04:50;93944.81;;;9.95;54.40
20009;BME280;10165;42.662;23.260;2023-11-21T00:07:18;93932.50;;;9.91;54.14
20009;BME280;10165;42.662;23.260;2023-11-21T00:09:45;93928.34;;;9.93;54.38
20009;BME280;10165;42.662;23.260;2023-11-21T00:12:12;93942.56;;;10.13;54.05
20009;BME280;10165;42.662;23.260;2023-11-21T00:14:40;93942.81;;;9.77;55.20
20009;BME280;10165;42.662;23.260;2023-11-21T00:17:07;93944.66;;;10.04;54.21
20009;BME280;10165;42.662;23.260;2023-11-21T00:19:34;93945.22;;;10.13;54.23
20009;BME280;10165;42.662;23.260;2023-11-21T00:22:01;93940.34;;;9.99;54.54
20009;BME280;10165;42.662;23.260;2023-11-21T00:24:28;93938.97;;;10.21;54.18
20009;BME280;10165;42.662;23.260;2023-11-21T00:26:55;93933.47;;;10.30;54.08
20009;BME280;10165;42.662;23.260;2023-11-21T00:29:21;93935.53;;;10.21;54.03
20009;BME280;10165;42.662;23.260;2023-11-21T00:31:48;93931.13;;;10.44;53.56
20009;BME280;10165;42.662;23.260;2023-11-21T00:34:15;93923.00;;;10.56;53.27
20009;BME280;10165;42.662;23.260;2023-11-21T00:36:42;93927.66;;;10.43;53.29
20009;BME280;10165;42.662;23.260;2023-11-21T00:39:09;93935.59;;;10.40;53.78
20009;BME280;10165;42.662;23.260;2023-11-21T00:41:36;93928.06;;;10.26;54.01
20009;BME280;10165;42.662;23.260;2023-11-21T00:44:03;93934.75;;;10.36;53.55
20009;BME280;10165;42.662;23.260;2023-11-21T00:46:30;93938.81;;;10.30;53.71
20009;BME280;10165;42.662;23.260;2023-11-21T00:48:58;93941.91;;;10.32;53.85
20009;BME280;10165;42.662;23.260;2023-11-21T00:51:24;93935.53;;;10.21;53.75
20009;BME280;10165;42.662;23.260;2023-11-21T00:53:51;93937.69;;;10.31;53.66
20009;BME280;10165;42.662;23.260;2023-11-21T00:56:18;93929.47;;;10.39;53.31
20009;BME280;10165;42.662;23.260;2023-11-21T00:58:45;93923.88;;;10.44;52.85
20009;BME280;10165;42.662;23.260;2023-11-21T01:01:16;93916.41;;;10.50;52.73
20009;BME280;10165;42.662;23.260;2023-11-21T01:03:43;93917.09;;;10.31;53.13
20009;BME280;10165;42.662;23.260;2023-11-21T01:06:12;93925.44;;;9.83;53.83
20009;BME280;10165;42.662;23.260;2023-11-21T01:08:41;93905.84;;;9.47;55.28
20009;BME280;10165;42.662;23.260;2023-11-21T01:11:08;93902.09;;;9.48;55.11
20009;BME280;10165;42.662;23.260;2023-11-21T01:13:35;93908.63;;;9.67;54.68
20009;BME280;10165;42.662;23.260;2023-11-21T01:16:02;93914.47;;;9.56;54.97
20009;BME280;10165;42.662;23.260;2023-11-21T01:18:30;93905.13;;;9.94;53.99
20009;BME280;10165;42.662;23.260;2023-11-21T01:20:57;93914.94;;;9.90;53.88
20009;BME280;10165;42.662;23.260;2023-11-21T01:23:24;93921.81;;;9.75;54.28
20009;BME280;10165;42.662;23.260;2023-11-21T01:25:50;93912.88;;;9.99;53.69
20009;BME280;10165;42.662;23.260;2023-11-21T01:28:18;93923.78;;;9.78;54.08
20009;BME280;10165;42.662;23.260;2023-11-21T01:30:46;93917.03;;;9.96;53.75
20009;BME280;10165;42.662;23.260;2023-11-21T01:33:13;93907.78;;;9.94;53.67
20009;BME280;10165;42.662;23.260;2023-11-21T01:35:42;93914.59;;;9.91;53.90
20009;BME280;10165;42.662;23.260;2023-11-21T01:38:09;93918.03;;;9.92;53.74
20009;BME280;10165;42.662;23.260;2023-11-21T01:40:36;93924.66;;;9.98;53.66
20009;BME280;10165;42.662;23.260;2023-11-21T01:43:03;93923.09;;;10.13;53.11
20009;BME280;10165;42.662;23.260;2023-11-21T01:45:30;93925.09;;;10.00;53.31
20009;BME280;10165;42.662;23.260;2023-11-21T01:48:01;93916.25;;;9.96;53.53
20009;BME280;10165;42.662;23.260;2023-11-21T01:50:29;93910.97;;;9.68;54.14
20009;BME280;10165;42.662;23.260;2023-11-21T01:52:57;93895.97;;;9.48;54.88
20009;BME280;10165;42.662;23.260;2023-11-21T01:55:24;93894.88;;;9.49;54.98
20009;BME280;10165;42.662;23.260;2023-11-21T01:57:55;93915.78;;;9.78;54.30
20009;BME280;10165;42.662;23.260;2023-11-21T02:00:23;93909.44;;;9.98;53.59
20009;BME280;10165;42.662;23.260;2023-11-21T02:02:51;93912.78;;;9.64;53.79
20009;BME280;10165;42.662;23.260;2023-11-21T02:05:19;93909.25;;;9.91;53.50
20009;BME280;10165;42.662;23.260;2023-11-21T02:07:46;93919.56;;;9.62;54.05
20009;BME280;10165;42.662;23.260;2023-11-21T02:10:16;93915.00;;;9.62;54.47
20009;BME280;10165;42.662;23.260;2023-11-21T02:12:44;93901.78;;;9.66;54.33
20009;BME280;10165;42.662;23.260;2023-11-21T02:15:15;93908.38;;;9.56;54.25
20009;BME280;10165;42.662;23.260;2023-11-21T02:17:43;93902.59;;;9.38;54.73
20009;BME280;10165;42.662;23.260;2023-11-21T02:20:11;93909.44;;;9.39;54.56
20009;BME280;10165;42.662;23.260;2023-11-21T02:22:43;93907.66;;;9.43;54.80
20009;BME280;10165;42.662;23.260;2023-11-21T02:25:10;93904.06;;;9.51;54.74
20009;BME280;10165;42.662;23.260;2023-11-21T02:27:37;93910.88;;;9.65;54.45
20009;BME280;10165;42.662;23.260;2023-11-21T02:30:04;93898.06;;;9.70;54.51
20009;BME280;10165;42.662;23.260;2023-11-21T02:32:31;93899.09;;;9.81;54.22
20009;BME280;10165;42.662;23.260;2023-11-21T02:34:58;93901.09;;;9.69;54.27
20009;BME280;10165;42.662;23.260;2023-11-21T02:37:27;93902.44;;;9.63;54.44
20009;BME280;10165;42.662;23.260;2023-11-21T02:39:54;93905.91;;;9.79;54.07
20009;BME280;10165;42.662;23.260;2023-11-21T02:42:21;93906.94;;;9.90;53.55
20009;BME280;10165;42.662;23.260;2023-11-21T02:44:48;93908.41;;;9.87;53.31
20009;BME280;10165;42.662;23.260;2023-11-21T02:47:16;93908.38;;;9.72;53.41
20009;BME280;10165;42.662;23.260;2023-11-21T02:49:43;93897.91;;;9.79;53.64
20009;BME280;10165;42.662;23.260;2023-11-21T02:52:10;93907.88;;;9.82;53.62
20009;BME280;10165;42.662;23.260;2023-11-21T02:54:37;93905.72;;;9.72;53.66
20009;BME280;10165;42.662;23.260;2023-11-21T02:57:04;93897.00;;;9.59;54.04
20009;BME280;10165;42.662;23.260;2023-11-21T02:59:30;93907.25;;;9.57;53.90
20009;BME280;10165;42.662;23.260;2023-11-21T03:01:57;93894.97;;;9.68;54.00
20009;BME280;10165;42.662;23.260;2023-11-21T03:04:24;93883.78;;;9.63;53.63
20009;BME280;10165;42.662;23.260;2023-11-21T03:06:52;93893.78;;;9.66;53.98
20009;BME280;10165;42.662;23.260;2023-11-21T03:09:19;93886.53;;;9.66;53.59
20009;BME280;10165;42.662;23.260;2023-11-21T03:11:46;93895.28;;;9.51;53.68
20009;BME280;10165;42.662;23.260;2023-11-21T03:14:13;93897.72;;;9.56;53.63
20009;BME280;10165;42.662;23.260;2023-11-21T03:16:40;93894.81;;;9.61;53.84
20009;BME280;10165;42.662;23.260;2023-11-21T03:19:07;93898.41;;;9.69;53.36
20009;BME280;10165;42.662;23.260;2023-11-21T03:21:34;93905.13;;;9.78;53.20
20009;BME280;10165;42.662;23.260;2023-11-21T03:24:01;93903.66;;;9.65;53.32
20009;BME280;10165;42.662;23.260;2023-11-21T03:26:28;93910.03;;;9.76;53.22
20009;BME280;10165;42.662;23.260;2023-11-21T03:28:56;93913.88;;;9.63;53.59
20009;BME280;10165;42.662;23.260;2023-11-21T03:31:23;93919.06;;;9.28;54.49
20009;BME280;10165;42.662;23.260;2023-11-21T03:33:49;93904.13;;;9.39;54.60
20009;BME280;10165;42.662;23.260;2023-11-21T03:36:16;93909.44;;;9.24;54.31
20009;BME280;10165;42.662;23.260;2023-11-21T03:38:45;93900.97;;;9.49;54.14
20009;BME280;10165;42.662;23.260;2023-11-21T03:41:12;93899.75;;;9.47;53.99
20009;BME280;10165;42.662;23.260;2023-11-21T03:43:39;93877.75;;;9.50;54.13
20009;BME280;10165;42.662;23.260;2023-11-21T03:46:06;93879.59;;;9.62;53.66
20009;BME280;10165;42.662;23.260;2023-11-21T03:48:33;93875.97;;;9.70;53.82
20009;BME280;10165;42.662;23.260;2023-11-21T03:51:00;93885.25;;;9.60;53.61
20009;BME280;10165;42.662;23.260;2023-11-21T03:53:27;93879.31;;;8.68;56.78
20009;BME280;10165;42.662;23.260;2023-11-21T03:55:54;93880.31;;;9.03;56.21
20009;BME280;10165;42.662;23.260;2023-11-21T03:58:21;93877.75;;;7.66;60.30
20009;BME280;10165;42.662;23.260;2023-11-21T04:00:48;93882.06;;;8.19;59.68
20009;BME280;10165;42.662;23.260;2023-11-21T04:03:15;93873.28;;;8.83;57.59
20009;BME280;10165;42.662;23.260;2023-11-21T04:05:42;93873.44;;;9.02;56.87
20009;BME280;10165;42.662;23.260;2023-11-21T04:08:09;93876.97;;;9.34;56.14
20009;BME280;10165;42.662;23.260;2023-11-21T04:10:36;93870.44;;;9.47;55.51
20009;BME280;10165;42.662;23.260;2023-11-21T04:13:03;93875.41;;;9.48;55.15
20009;BME280;10165;42.662;23.260;2023-11-21T04:15:29;93872.31;;;9.31;55.26
20009;BME280;10165;42.662;23.260;2023-11-21T04:17:56;93873.22;;;9.50;55.17
20009;BME280;10165;42.662;23.260;2023-11-21T04:20:23;93874.09;;;9.27;54.90
20009;BME280;10165;42.662;23.260;2023-11-21T04:22:50;93872.84;;;9.08;55.55
20009;BME280;10165;42.662;23.260;2023-11-21T04:25:17;93875.91;;;9.23;55.70
20009;BME280;10165;42.662;23.260;2023-11-21T04:27:44;93872.56;;;9.26;55.22
20009;BME280;10165;42.662;23.260;2023-11-21T04:30:12;93880.84;;;9.52;54.92
20009;BME280;10165;42.662;23.260;2023-11-21T04:32:40;93881.50;;;9.33;55.05
20009;BME280;10165;42.662;23.260;2023-11-21T04:35:08;93881.44;;;9.45;54.96
20009;BME280;10165;42.662;23.260;2023-11-21T04:37:35;93878.63;;;9.54;54.64
20009;BME280;10165;42.662;23.260;2023-11-21T04:40:02;93885.22;;;9.44;54.81
20009;BME280;10165;42.662;23.260;2023-11-21T04:42:34;93874.09;;;9.27;55.55
20009;BME280;10165;42.662;23.260;2023-11-21T04:45:04;93878.25;;;9.40;55.10
20009;BME280;10165;42.662;23.260;2023-11-21T04:47:35;93876.59;;;9.20;55.34
20009;BME280;10165;42.662;23.260;2023-11-21T04:50:03;93881.59;;;9.37;55.05
20009;BME280;10165;42.662;23.260;2023-11-21T04:52:30;93885.47;;;9.39;55.03
20009;BME280;10165;42.662;23.260;2023-11-21T04:54:57;93887.28;;;9.51;54.70
20009;BME280;10165;42.662;23.260;2023-11-21T04:57:25;93891.19;;;9.53;54.47
20009;BME280;10165;42.662;23.260;2023-11-21T04:59:52;93890.81;;;9.55;54.49
20009;BME280;10165;42.662;23.260;2023-11-21T05:02:18;93891.19;;;9.53;54.69
20009;BME280;10165;42.662;23.260;2023-11-21T05:05:03;93891.19;;;9.69;54.13
20009;BME280;10165;42.662;23.260;2023-11-21T05:07:33;93890.66;;;9.64;54.57
20009;BME280;10165;42.662;23.260;2023-11-21T05:10:04;93881.28;;;9.54;54.94
20009;BME280;10165;42.662;23.260;2023-11-21T05:12:34;93873.88;;;9.47;55.45
20009;BME280;10165;42.662;23.260;2023-11-21T05:15:04;93875.19;;;9.53;55.13
20009;BME280;10165;42.662;23.260;2023-11-21T05:17:40;93873.97;;;9.07;55.72
20009;BME280;10165;42.662;23.260;2023-11-21T05:20:11;93872.97;;;9.12;55.88
20009;BME280;10165;42.662;23.260;2023-11-21T05:22:40;93872.44;;;9.06;56.17
20009;BME280;10165;42.662;23.260;2023-11-21T05:25:08;93875.06;;;9.34;55.63
20009;BME280;10165;42.662;23.260;2023-11-21T05:27:35;93878.03;;;9.17;55.60
20009;BME280;10165;42.662;23.260;2023-11-21T05:30:03;93884.00;;;8.98;56.42
20009;BME280;10165;42.662;23.260;2023-11-21T05:32:32;93878.06;;;9.05;56.58
20009;BME280;10165;42.662;23.260;2023-11-21T05:35:00;93883.16;;;8.82;58.15
20009;BME280;10165;42.662;23.260;2023-11-21T05:37:27;93888.53;;;8.70;57.08
20009;BME280;10165;42.662;23.260;2023-11-21T05:39:55;93891.19;;;8.70;57.43
20009;BME280;10165;42.662;23.260;2023-11-21T05:42:25;93898.63;;;9.04;56.56
20009;BME280;10165;42.662;23.260;2023-11-21T05:44:52;93893.53;;;8.99;56.50
20009;BME280;10165;42.662;23.260;2023-11-21T05:47:18;93895.56;;;8.90;56.49
20009;BME280;10165;42.662;23.260;2023-11-21T05:49:45;93893.38;;;8.04;59.21
20009;BME280;10165;42.662;23.260;2023-11-21T05:52:17;93883.94;;;8.43;58.38
20009;BME280;10165;42.662;23.260;2023-11-21T05:54:44;93869.63;;;8.87;57.60
20009;BME280;10165;42.662;23.260;2023-11-21T05:57:11;93875.91;;;8.95;56.80
20009;BME280;10165;42.662;23.260;2023-11-21T05:59:38;93888.22;;;8.99;56.75
20009;BME280;10165;42.662;23.260;2023-11-21T06:02:04;93878.66;;;8.98;56.81
20009;BME280;10165;42.662;23.260;2023-11-21T06:04:31;93888.31;;;8.63;57.39
20009;BME280;10165;42.662;23.260;2023-11-21T06:06:58;93886.47;;;7.79;59.96
20009;BME280;10165;42.662;23.260;2023-11-21T06:09:25;93893.94;;;8.34;59.33
20009;BME280;10165;42.662;23.260;2023-11-21T06:11:51;93895.53;;;8.62;58.29
20009;BME280;10165;42.662;23.260;2023-11-21T06:14:18;93898.19;;;8.62;57.91
20009;BME280;10165;42.662;23.260;2023-11-21T06:16:45;93904.28;;;8.63;58.33
20009;BME280;10165;42.662;23.260;2023-11-21T06:19:12;93905.16;;;8.79;57.99
20009;BME280;10165;42.662;23.260;2023-11-21T06:21:39;93897.28;;;8.71;57.85
20009;BME280;10165;42.662;23.260;2023-11-21T06:24:05;93900.03;;;8.74;58.08
20009;BME280;10165;42.662;23.260;2023-11-21T06:26:33;93908.09;;;8.62;58.31
20009;BME280;10165;42.662;23.260;2023-11-21T06:29:01;93916.19;;;8.53;58.55
20009;BME280;10165;42.662;23.260;2023-11-21T06:31:29;93907.44;;;8.41;59.00
20009;BME280;10165;42.662;23.260;2023-11-21T06:33:56;93904.09;;;8.56;58.57
20009;BME280;10165;42.662;23.260;2023-11-21T06:36:24;93904.88;;;8.44;58.92
20009;BME280;10165;42.662;23.260;2023-11-21T06:38:51;93917.97;;;8.49;58.93
20009;BME280;10165;42.662;23.260;2023-11-21T06:41:18;93925.34;;;8.80;58.25
20009;BME280;10165;42.662;23.260;2023-11-21T06:43:44;93922.41;;;8.57;58.63
20009;BME280;10165;42.662;23.260;2023-11-21T06:46:13;93927.31;;;8.31;59.22
20009;BME280;10165;42.662;23.260;2023-11-21T06:48:44;93927.41;;;8.47;58.83
20009;BME280;10165;42.662;23.260;2023-11-21T06:51:11;93925.13;;;8.73;58.68
20009;BME280;10165;42.662;23.260;2023-11-21T06:53:40;93932.41;;;9.00;58.54
20009;BME280;10165;42.662;23.260;2023-11-21T06:56:15;93934.59;;;8.98;57.87
20009;BME280;10165;42.662;23.260;2023-11-21T06:58:43;93929.97;;;8.95;58.05
20009;BME280;10165;42.662;23.260;2023-11-21T07:01:15;93927.97;;;8.92;57.94
20009;BME280;10165;42.662;23.260;2023-11-21T07:03:41;93933.59;;;8.51;59.11
20009;BME280;10165;42.662;23.260;2023-11-21T07:06:08;93929.31;;;8.86;58.84
20009;BME280;10165;42.662;23.260;2023-11-21T07:08:35;93916.84;;;9.02;58.09
20009;BME280;10165;42.662;23.260;2023-11-21T07:11:05;93915.19;;;9.26;57.73
20009;BME280;10165;42.662;23.260;2023-11-21T07:13:32;93914.41;;;9.53;56.80
20009;BME280;10165;42.662;23.260;2023-11-21T07:15:59;93904.78;;;9.64;56.79
20009;BME280;10165;42.662;23.260;2023-11-21T07:18:26;93910.69;;;9.42;56.78
20009;BME280;10165;42.662;23.260;2023-11-21T07:20:53;93907.09;;;9.22;58.03
20009;BME280;10165;42.662;23.260;2023-11-21T07:23:20;93909.00;;;9.65;57.53
20009;BME280;10165;42.662;23.260;2023-11-21T07:25:49;93917.38;;;9.51;57.25
20009;BME280;10165;42.662;23.260;2023-11-21T07:28:16;93918.53;;;9.82;56.62
20009;BME280;10165;42.662;23.260;2023-11-21T07:30:42;93913.03;;;9.90;56.40
20009;BME280;10165;42.662;23.260;2023-11-21T07:33:10;93915.84;;;9.66;56.28
20009;BME280;10165;42.662;23.260;2023-11-21T07:35:36;93925.69;;;9.78;56.52
20009;BME280;10165;42.662;23.260;2023-11-21T07:38:03;93918.81;;;9.77;56.29
20009;BME280;10165;42.662;23.260;2023-11-21T07:40:30;93921.13;;;9.94;55.81
20009;BME280;10165;42.662;23.260;2023-11-21T07:42:57;93918.03;;;9.92;55.77
20009;BME280;10165;42.662;23.260;2023-11-21T07:45:24;93911.00;;;10.15;55.86
20009;BME280;10165;42.662;23.260;2023-11-21T07:47:54;93907.97;;;10.17;55.32
20009;BME280;10165;42.662;23.260;2023-11-21T07:50:22;93910.81;;;10.24;55.71
20009;BME280;10165;42.662;23.260;2023-11-21T07:52:49;93903.84;;;9.88;55.53
20009;BME280;10165;42.662;23.260;2023-11-21T07:55:16;93904.25;;;9.90;55.65
20009;BME280;10165;42.662;23.260;2023-11-21T07:57:43;93903.84;;;10.35;55.37
20009;BME280;10165;42.662;23.260;2023-11-21T08:00:10;93899.47;;;10.27;55.26
20009;BME280;10165;42.662;23.260;2023-11-21T08:02:39;93898.16;;;10.21;55.69
20009;BME280;10165;42.662;23.260;2023-11-21T08:05:09;93896.72;;;10.58;55.08
20009;BME280;10165;42.662;23.260;2023-11-21T08:07:50;93896.84;;;10.46;55.24
20009;BME280;10165;42.662;23.260;2023-11-21T08:10:17;93894.16;;;10.62;54.41
20009;BME280;10165;42.662;23.260;2023-11-21T08:12:44;93894.03;;;10.58;54.83
20009;BME280;10165;42.662;23.260;2023-11-21T08:15:11;93898.16;;;10.71;54.22
20009;BME280;10165;42.662;23.260;2023-11-21T08:17:37;93898.84;;;10.33;55.11
20009;BME280;10165;42.662;23.260;2023-11-21T08:20:06;93900.06;;;10.90;54.08
20009;BME280;10165;42.662;23.260;2023-11-21T08:22:35;93885.94;;;10.89;54.27
20009;BME280;10165;42.662;23.260;2023-11-21T08:25:02;93889.66;;;11.04;53.90
20009;BME280;10165;42.662;23.260;2023-11-21T08:27:31;93889.94;;;11.37;53.72
20009;BME280;10165;42.662;23.260;2023-11-21T08:29:57;93900.50;;;10.92;54.72
20009;BME280;10165;42.662;23.260;2023-11-21T08:32:25;93891.09;;;10.63;55.69
20009;BME280;10165;42.662;23.260;2023-11-21T08:34:51;93890.50;;;10.89;55.16
20009;BME280;10165;42.662;23.260;2023-11-21T08:37:19;93885.78;;;11.01;54.50
20009;BME280;10165;42.662;23.260;2023-11-21T08:39:47;93887.88;;;11.31;53.70
20009;BME280;10165;42.662;23.260;2023-11-21T08:42:15;93881.84;;;11.34;53.16
20009;BME280;10165;42.662;23.260;2023-11-21T08:44:42;93895.56;;;11.32;53.37
20009;BME280;10165;42.662;23.260;2023-11-21T08:47:09;93885.38;;;11.38;52.68
20009;BME280;10165;42.662;23.260;2023-11-21T08:49:36;93889.50;;;11.16;53.54
20009;BME280;10165;42.662;23.260;2023-11-21T08:52:03;93883.25;;;11.28;53.42
20009;BME280;10165;42.662;23.260;2023-11-21T08:54:31;93879.31;;;11.22;53.24
20009;BME280;10165;42.662;23.260;2023-11-21T08:56:58;93869.84;;;11.47;52.70
20009;BME280;10165;42.662;23.260;2023-11-21T08:59:25;93861.16;;;11.31;52.99
20009;BME280;10165;42.662;23.260;2023-11-21T09:01:52;93864.56;;;11.50;52.16
20009;BME280;10165;42.662;23.260;2023-11-21T09:04:19;93853.00;;;10.66;54.67
20009;BME280;10165;42.662;23.260;2023-11-21T09:06:46;93841.13;;;11.02;53.27
20009;BME280;10165;42.662;23.260;2023-11-21T09:09:13;93833.06;;;11.63;52.47
20009;BME280;10165;42.662;23.260;2023-11-21T09:11:40;93841.66;;;10.88;53.84
20009;BME280;10165;42.662;23.260;2023-11-21T09:14:07;93828.44;;;10.95;53.39
20009;BME280;10165;42.662;23.260;2023-11-21T09:16:35;93824.22;;;11.59;52.58
20009;BME280;10165;42.662;23.260;2023-11-21T09:19:02;93815.69;;;11.73;52.34
20009;BME280;10165;42.662;23.260;2023-11-21T09:21:31;93800.50;;;12.03;51.48
20009;BME280;10165;42.662;23.260;2023-11-21T09:23:59;93803.09;;;12.26;50.94
20009;BME280;10165;42.662;23.260;2023-11-21T09:26:26;93790.97;;;12.35;50.84
20009;BME280;10165;42.662;23.260;2023-11-21T09:28:53;93786.16;;;11.69;51.62
20009;BME280;10165;42.662;23.260;2023-11-21T09:31:19;93779.66;;;12.19;50.92
20009;BME280;10165;42.662;23.260;2023-11-21T09:33:49;93775.75;;;12.13;51.40
20009;BME280;10165;42.662;23.260;2023-11-21T09:36:16;93775.41;;;12.15;50.89
20009;BME280;10165;42.662;23.260;2023-11-21T09:38:42;93769.97;;;12.11;50.61
20009;BME280;10165;42.662;23.260;2023-11-21T09:41:19;93763.53;;;12.16;50.68
20009;BME280;10165;42.662;23.260;2023-11-21T09:43:49;93752.31;;;12.33;50.65
20009;BME280;10165;42.662;23.260;2023-11-21T09:46:21;93744.34;;;11.80;51.03
20009;BME280;10165;42.662;23.260;2023-11-21T09:48:50;93745.50;;;12.09;50.56
20009;BME280;10165;42.662;23.260;2023-11-21T09:51:24;93740.31;;;12.23;50.31
20009;BME280;10165;42.662;23.260;2023-11-21T09:53:57;93738.44;;;12.57;49.54
20009;BME280;10165;42.662;23.260;2023-11-21T09:56:26;93734.44;;;11.62;51.74
20009;BME280;10165;42.662;23.260;2023-11-21T09:58:53;93726.81;;;11.86;51.11
20009;BME280;10165;42.662;23.260;2023-11-21T10:01:21;93725.94;;;12.35;50.27
20009;BME280;10165;42.662;23.260;2023-11-21T10:03:49;93720.34;;;12.17;49.83
20009;BME280;10165;42.662;23.260;2023-11-21T10:06:17;93726.47;;;11.88;50.66
20009;BME280;10165;42.662;23.260;2023-11-21T10:08:45;93713.03;;;12.44;50.06
20009;BME280;10165;42.662;23.260;2023-11-21T10:11:25;93704.03;;;12.26;50.04
20009;BME280;10165;42.662;23.260;2023-11-21T10:13:54;93697.75;;;12.44;49.78
20009;BME280;10165;42.662;23.260;2023-11-21T10:16:25;93699.34;;;12.49;49.51
20009;BME280;10165;42.662;23.260;2023-11-21T10:18:53;93703.06;;;12.41;49.76
20009;BME280;10165;42.662;23.260;2023-11-21T10:21:39;93690.38;;;12.71;48.63
20009;BME280;10165;42.662;23.260;2023-11-21T10:24:07;93688.59;;;13.23;47.63
20009;BME280;10165;42.662;23.260;2023-11-21T10:26:34;93696.56;;;12.75;48.60
20009;BME280;10165;42.662;23.260;2023-11-21T10:29:16;93704.41;;;12.94;48.34
20009;BME280;10165;42.662;23.260;2023-11-21T10:31:45;93695.41;;;13.13;48.05
20009;BME280;10165;42.662;23.260;2023-11-21T10:34:20;93704.31;;;12.84;49.11
20009;BME280;10165;42.662;23.260;2023-11-21T10:36:47;93692.66;;;12.69;49.16
20009;BME280;10165;42.662;23.260;2023-11-21T10:39:19;93684.72;;;13.17;47.84
20009;BME280;10165;42.662;23.260;2023-11-21T10:41:46;93684.78;;;13.24;47.84
20009;BME280;10165;42.662;23.260;2023-11-21T10:44:15;93680.69;;;13.37;47.20
20009;BME280;10165;42.662;23.260;2023-11-21T10:46:53;93684.34;;;13.18;47.58
20009;BME280;10165;42.662;23.260;2023-11-21T10:49:25;93684.34;;;13.69;46.80
20009;BME280;10165;42.662;23.260;2023-11-21T10:51:53;93665.63;;;13.25;46.96
20009;BME280;10165;42.662;23.260;2023-11-21T10:54:21;93673.88;;;13.54;46.81
20009;BME280;10165;42.662;23.260;2023-11-21T10:56:56;93674.22;;;13.45;47.17
20009;BME280;10165;42.662;23.260;2023-11-21T10:59:23;93669.72;;;13.60;46.83
20009;BME280;10165;42.662;23.260;2023-11-21T11:01:53;93668.22;;;13.66;46.54
20009;BME280;10165;42.662;23.260;2023-11-21T11:04:22;93659.13;;;13.84;46.50
20009;BME280;10165;42.662;23.260;2023-11-21T11:06:55;93663.06;;;14.01;46.12
20009;BME280;10165;42.662;23.260;2023-11-21T11:09:24;93642.31;;;13.91;46.19
20009;BME280;10165;42.662;23.260;2023-11-21T11:11:51;93649.94;;;13.89;46.04
20009;BME280;10165;42.662;23.260;2023-11-21T11:14:19;93648.09;;;14.04;45.49
20009;BME280;10165;42.662;23.260;2023-11-21T11:16:47;93632.47;;;12.60;49.34
20009;BME280;10165;42.662;23.260;2023-11-21T11:19:16;93633.00;;;13.71;47.12
20009;BME280;10165;42.662;23.260;2023-11-21T11:22:03;93631.88;;;13.79;47.28
20009;BME280;10165;42.662;23.260;2023-11-21T11:27:40;93617.75;;;13.93;46.82
20009;BME280;10165;42.662;23.260;2023-11-21T11:33:08;93619.25;;;13.79;46.07
20009;BME280;10165;42.662;23.260;2023-11-21T11:35:46;93607.47;;;14.09;46.16
20009;BME280;10165;42.662;23.260;2023-11-21T11:38:17;93611.25;;;13.97;46.80
20009;BME280;10165;42.662;23.260;2023-11-21T11:40:45;93607.41;;;13.91;45.93
20009;BME280;10165;42.662;23.260;2023-11-21T11:43:13;93632.00;;;14.07;45.67
20009;BME280;10165;42.662;23.260;2023-11-21T11:45:40;93629.41;;;14.25;46.43
20009;BME280;10165;42.662;23.260;2023-11-21T11:48:13;93626.31;;;14.19;46.54
20009;BME280;10165;42.662;23.260;2023-11-21T11:51:11;93618.56;;;14.04;47.08
20009;BME280;10165;42.662;23.260;2023-11-21T11:53:42;93618.81;;;13.77;48.52
20009;BME280;10165;42.662;23.260;2023-11-21T11:58:50;93605.56;;;14.09;47.45
20009;BME280;10165;42.662;23.260;2023-11-21T12:01:21;93609.06;;;14.24;46.81
20009;BME280;10165;42.662;23.260;2023-11-21T12:07:01;93613.50;;;12.79;49.71
20009;BME280;10165;42.662;23.260;2023-11-21T12:09:32;93624.25;;;13.26;49.17
20009;BME280;10165;42.662;23.260;2023-11-21T12:11:59;93628.09;;;13.25;50.09
20009;BME280;10165;42.662;23.260;2023-11-21T12:14:26;93636.22;;;13.39;49.53
20009;BME280;10165;42.662;23.260;2023-11-21T12:16:54;93642.28;;;13.26;49.62
20009;BME280;10165;42.662;23.260;2023-11-21T12:19:21;93636.03;;;13.15;51.24
20009;BME280;10165;42.662;23.260;2023-11-21T12:21:49;93614.75;;;12.92;51.07
20009;BME280;10165;42.662;23.260;2023-11-21T12:24:16;93609.88;;;13.05;51.65
20009;BME280;10165;42.662;23.260;2023-11-21T12:26:43;93620.44;;;12.83;52.27
20009;BME280;10165;42.662;23.260;2023-11-21T12:29:11;93621.41;;;13.09;51.56
20009;BME280;10165;42.662;23.260;2023-11-21T12:31:38;93622.78;;;13.32;50.61
20009;BME280;10165;42.662;23.260;2023-11-21T12:34:07;93625.13;;;13.41;51.23
20009;BME280;10165;42.662;23.260;2023-11-21T12:36:39;93627.81;;;13.41;51.40
20009;BME280;10165;42.662;23.260;2023-11-21T12:39:07;93617.19;;;13.08;52.24
20009;BME280;10165;42.662;23.260;2023-11-21T12:41:36;93615.38;;;12.75;52.77
20009;BME280;10165;42.662;23.260;2023-11-21T12:44:03;93610.38;;;12.73;53.09
20009;BME280;10165;42.662;23.260;2023-11-21T12:46:30;93610.91;;;12.89;52.64
20009;BME280;10165;42.662;23.260;2023-11-21T12:49:00;93594.53;;;12.98;52.52
20009;BME280;10165;42.662;23.260;2023-11-21T12:51:27;93590.31;;;13.01;52.16
20009;BME280;10165;42.662;23.260;2023-11-21T12:53:56;93592.13;;;13.33;52.35
20009;BME280;10165;42.662;23.260;2023-11-21T12:56:23;93588.31;;;13.38;52.55
20009;BME280;10165;42.662;23.260;2023-11-21T12:58:53;93575.28;;;13.36;51.87
20009;BME280;10165;42.662;23.260;2023-11-21T13:01:20;93576.78;;;13.34;52.67
20009;BME280;10165;42.662;23.260;2023-11-21T13:03:53;93577.22;;;13.43;52.24
20009;BME280;10165;42.662;23.260;2023-11-21T13:06:20;93569.19;;;13.43;52.04
20009;BME280;10165;42.662;23.260;2023-11-21T13:08:51;93582.47;;;13.22;51.63
20009;BME280;10165;42.662;23.260;2023-11-21T13:11:18;93573.69;;;13.28;51.98
20009;BME280;10165;42.662;23.260;2023-11-21T13:13:45;93573.38;;;13.33;51.69